createdAt,value
2018-01-11T00:02:01.467Z,7.00
2018-01-11T00:04:28.944Z,6.90
2018-01-11T00:06:56.451Z,6.90
2018-01-11T00:09:23.952Z,6.80
2018-01-11T00:11:51.841Z,6.90
2018-01-11T00:14:19.735Z,6.90
2018-01-11T00:16:47.771Z,6.80
2018-01-11T00:19:15.296Z,6.90
2018-01-11T00:21:42.785Z,6.80
2018-01-11T00:24:10.279Z,6.80
2018-01-11T00:26:38.174Z,6.80
2018-01-11T00:29:06.143Z,6.80
2018-01-11T00:31:33.623Z,6.80
2018-01-11T00:34:01.212Z,6.90
2018-01-11T00:36:28.711Z,6.90
2018-01-11T00:38:56.594Z,6.90
2018-01-11T00:41:24.091Z,7.00
2018-01-11T00:43:51.977Z,7.00
2018-01-11T00:46:19.880Z,7.00
2018-01-11T00:48:47.759Z,7.00
2018-01-11T00:51:15.265Z,7.10
2018-01-11T00:53:42.752Z,7.00
2018-01-11T00:56:10.278Z,7.00
2018-01-11T00:58:37.769Z,7.00
2018-01-11T01:01:05.262Z,7.00
2018-01-11T01:03:32.766Z,7.10
2018-01-11T01:06:00.655Z,7.00
2018-01-11T01:08:28.155Z,7.00
2018-01-11T01:10:56.042Z,6.90
2018-01-11T01:13:24.008Z,7.00
2018-01-11T01:15:51.595Z,7.00
2018-01-11T01:18:19.125Z,6.90
2018-01-11T01:20:47.545Z,7.00
2018-01-11T01:23:15.041Z,7.00
2018-01-11T01:25:42.553Z,6.90
2018-01-11T01:28:10.031Z,6.90
2018-01-11T01:30:37.633Z,6.90
2018-01-11T01:33:05.213Z,6.90
2018-01-11T01:35:32.797Z,6.90
2018-01-11T01:38:00.275Z,6.90
2018-01-11T01:40:27.801Z,6.90
2018-01-11T01:42:55.288Z,6.80
2018-01-11T01:45:22.783Z,6.80
2018-01-11T01:47:50.315Z,6.70
2018-01-11T01:50:17.892Z,6.80
2018-01-11T01:52:45.485Z,6.80
2018-01-11T01:55:12.980Z,6.80
2018-01-11T01:57:40.875Z,6.70
2018-01-11T02:00:08.761Z,6.80
2018-01-11T02:02:36.651Z,6.80
2018-01-11T02:05:04.252Z,6.80
2018-01-11T02:07:32.153Z,6.80
2018-01-11T02:09:59.648Z,6.80
2018-01-11T02:12:27.139Z,6.80
2018-01-11T02:14:54.635Z,6.80
2018-01-11T02:17:22.123Z,6.80
2018-01-11T02:19:49.733Z,6.70
2018-01-11T02:22:17.310Z,6.60
2018-01-11T02:24:44.811Z,6.60
2018-01-11T02:27:12.399Z,6.70
2018-01-11T02:29:39.919Z,6.70
2018-01-11T02:32:07.413Z,6.70
2018-01-11T02:34:34.945Z,6.70
2018-01-11T02:37:02.520Z,6.70
2018-01-11T02:39:30.019Z,6.80
2018-01-11T02:41:57.531Z,6.90
2018-01-11T02:46:58.043Z,6.80
2018-01-11T02:49:25.523Z,6.80
2018-01-11T02:51:53.020Z,6.80
2018-01-11T02:54:20.526Z,6.80
2018-01-11T02:56:48.027Z,6.90
2018-01-11T02:59:15.526Z,6.90
2018-01-11T03:01:43.491Z,6.90
2018-01-11T03:04:10.983Z,7.00
2018-01-11T03:06:38.575Z,6.90
2018-01-11T03:09:06.467Z,6.90
2018-01-11T03:11:34.352Z,6.90
2018-01-11T03:14:01.931Z,7.00
2018-01-11T03:16:29.425Z,6.90
2018-01-11T03:18:56.927Z,6.90
2018-01-11T03:21:24.821Z,6.90
2018-01-11T03:23:52.349Z,6.90
2018-01-11T03:26:19.841Z,6.90
2018-01-11T03:28:47.325Z,6.90
2018-01-11T03:31:14.834Z,6.90
2018-01-11T03:33:42.727Z,6.90
2018-01-11T03:36:10.219Z,7.00
2018-01-11T03:38:38.197Z,7.00
2018-01-11T03:41:05.706Z,7.00
2018-01-11T03:43:33.594Z,7.00
2018-01-11T03:46:01.502Z,7.00
2018-01-11T03:48:28.980Z,7.00
2018-01-11T03:50:56.850Z,6.90
2018-01-11T03:53:24.363Z,7.00
2018-01-11T03:55:51.909Z,6.90
2018-01-11T03:58:19.416Z,7.00
2018-01-11T04:00:46.911Z,6.90
2018-01-11T04:03:14.420Z,6.90
2018-01-11T04:05:41.949Z,6.90
2018-01-11T04:08:09.861Z,6.80
2018-01-11T04:10:37.823Z,6.90
2018-01-11T04:13:05.421Z,6.90
2018-01-11T04:15:32.929Z,6.90
2018-01-11T04:18:00.407Z,7.00
2018-01-11T04:20:28.313Z,7.00
2018-01-11T04:22:55.857Z,7.00
2018-01-11T04:25:23.361Z,6.90
2018-01-11T04:27:51.234Z,6.90
2018-01-11T04:30:19.120Z,6.90
2018-01-11T04:32:46.616Z,6.90
2018-01-11T04:35:14.506Z,6.90
2018-01-11T04:37:42.090Z,6.90
2018-01-11T04:40:09.590Z,6.90
2018-01-11T04:42:37.487Z,6.90
2018-01-11T04:45:05.462Z,6.90
2018-01-11T04:47:32.973Z,6.90
2018-01-11T04:50:00.525Z,6.90
2018-01-11T04:52:28.113Z,6.90
2018-01-11T04:54:55.643Z,6.80
2018-01-11T04:57:23.122Z,6.80
2018-01-11T04:59:50.670Z,6.80
2018-01-11T05:02:18.546Z,6.80
2018-01-11T05:04:46.057Z,6.80
2018-01-11T05:07:13.931Z,6.80
2018-01-11T05:09:41.503Z,6.80
2018-01-11T05:12:08.994Z,6.80
2018-01-11T05:14:36.570Z,6.90
2018-01-11T05:17:04.078Z,6.90
2018-01-11T05:19:31.970Z,6.90
2018-01-11T05:21:59.868Z,6.80
2018-01-11T05:24:27.747Z,6.90
2018-01-11T05:26:55.653Z,6.90
2018-01-11T05:29:23.545Z,6.90
2018-01-11T05:31:51.439Z,6.90
2018-01-11T05:34:19.410Z,6.80
2018-01-11T05:36:46.924Z,6.80
2018-01-11T05:39:14.420Z,6.80
2018-01-11T05:41:41.913Z,6.90
2018-01-11T05:44:09.429Z,6.80
2018-01-11T05:46:36.917Z,6.90
2018-01-11T05:49:04.514Z,6.80
2018-01-11T05:51:31.998Z,6.80
2018-01-11T05:53:59.498Z,6.80
2018-01-11T05:56:27.374Z,6.70
2018-01-11T05:58:54.887Z,6.70
2018-01-11T06:01:22.371Z,6.70
2018-01-11T06:03:49.885Z,6.70
2018-01-11T06:06:17.387Z,6.70
2018-01-11T06:08:44.976Z,6.70
2018-01-11T06:11:12.491Z,6.60
2018-01-11T06:13:40.395Z,6.70
2018-01-11T06:16:07.949Z,6.70
2018-01-11T06:18:35.528Z,6.70
2018-01-11T06:21:03.049Z,6.60
2018-01-11T06:23:30.607Z,6.70
2018-01-11T06:25:58.503Z,6.70
2018-01-11T06:28:26.379Z,6.60
2018-01-11T06:30:53.889Z,6.70
2018-01-11T06:33:21.778Z,6.70
2018-01-11T06:35:49.675Z,6.70
2018-01-11T06:38:17.631Z,6.60
2018-01-11T06:40:45.229Z,6.70
2018-01-11T06:43:12.731Z,6.60
2018-01-11T06:45:40.618Z,6.60
2018-01-11T06:48:08.526Z,6.70
2018-01-11T06:50:36.079Z,6.70
2018-01-11T06:53:03.584Z,6.70
2018-01-11T06:55:31.472Z,6.80
2018-01-11T06:57:59.373Z,6.80
2018-01-11T07:00:27.345Z,6.80
2018-01-11T07:02:54.932Z,6.80
2018-01-11T07:05:22.416Z,6.80
2018-01-11T07:07:50.325Z,6.70
2018-01-11T07:10:17.891Z,6.80
2018-01-11T07:12:45.793Z,6.90
2018-01-11T07:15:13.693Z,6.90
2018-01-11T07:17:41.581Z,6.90
2018-01-11T07:20:09.475Z,6.90
2018-01-11T07:22:37.448Z,6.90
2018-01-11T07:25:04.956Z,6.90
2018-01-11T07:27:32.835Z,6.80
2018-01-11T07:30:00.737Z,6.80
2018-01-11T07:32:28.620Z,6.70
2018-01-11T07:34:56.540Z,6.70
2018-01-11T07:37:24.088Z,6.70
2018-01-11T07:39:51.597Z,6.70
2018-01-11T07:42:19.088Z,6.80
2018-01-11T07:44:46.602Z,6.80
2018-01-11T07:47:14.092Z,6.80
2018-01-11T07:49:41.593Z,6.80
2018-01-11T07:52:09.077Z,6.80
2018-01-11T07:54:36.582Z,6.80
2018-01-11T07:57:04.455Z,6.90
2018-01-11T07:59:31.965Z,6.90
2018-01-11T08:01:59.862Z,6.90
2018-01-11T08:04:27.754Z,6.80
2018-01-11T08:06:55.635Z,6.80
2018-01-11T08:09:23.533Z,6.90
2018-01-11T08:11:51.456Z,6.90
2018-01-11T08:14:18.960Z,6.90
2018-01-11T08:16:46.438Z,6.80
2018-01-11T08:19:13.935Z,6.80
2018-01-11T08:21:41.432Z,6.80
2018-01-11T08:24:08.906Z,6.80
2018-01-11T08:26:36.408Z,6.80
2018-01-11T08:29:03.898Z,6.90
2018-01-11T08:31:31.885Z,6.90
2018-01-11T08:33:59.515Z,6.90
2018-01-11T08:36:27.458Z,7.00
2018-01-11T08:38:54.934Z,7.00
2018-01-11T08:41:22.440Z,7.10
2018-01-11T08:43:50.340Z,7.00
2018-01-11T08:46:18.306Z,7.00
2018-01-11T08:48:45.786Z,7.00
2018-01-11T08:51:13.282Z,7.00
2018-01-11T08:53:40.754Z,7.00
2018-01-11T08:56:08.251Z,7.00
2018-01-11T08:58:35.829Z,7.00
2018-01-11T09:01:03.337Z,7.00
2018-01-11T09:03:30.908Z,7.10
2018-01-11T09:05:58.905Z,7.70
2018-01-11T09:08:26.782Z,7.90
2018-01-11T09:10:54.283Z,7.90
2018-01-11T09:13:22.220Z,7.70
2018-01-11T09:15:49.710Z,7.70
2018-01-11T09:18:17.196Z,7.50
2018-01-11T09:20:44.687Z,7.40
2018-01-11T09:23:12.168Z,7.40
2018-01-11T09:25:39.705Z,7.50
2018-01-11T09:28:07.555Z,7.40
2018-01-11T09:30:35.065Z,7.40
2018-01-11T09:33:02.539Z,7.40
2018-01-11T09:35:30.467Z,7.40
2018-01-11T09:37:57.940Z,7.40
2018-01-11T09:40:25.476Z,7.40
2018-01-11T09:42:52.977Z,7.40
2018-01-11T09:45:20.479Z,7.40
2018-01-11T09:47:48.001Z,7.40
2018-01-11T09:50:15.537Z,7.50
2018-01-11T09:52:43.094Z,7.60
2018-01-11T09:55:10.599Z,7.60
2018-01-11T09:57:38.095Z,7.60
2018-01-11T10:00:05.980Z,7.70
2018-01-11T10:02:33.882Z,7.80
2018-01-11T10:05:01.430Z,7.80
2018-01-11T10:07:28.921Z,7.80
2018-01-11T10:09:56.512Z,7.80
2018-01-11T10:12:24.003Z,7.80
2018-01-11T10:14:51.483Z,7.80
2018-01-11T10:17:19.064Z,7.80
2018-01-11T10:19:46.539Z,7.90
2018-01-11T10:22:14.046Z,8.00
2018-01-11T10:24:41.914Z,7.90
2018-01-11T10:27:09.421Z,7.90
2018-01-11T10:29:37.395Z,8.00
2018-01-11T10:32:05.307Z,8.00
2018-01-11T10:34:32.783Z,8.00
2018-01-11T10:37:00.675Z,8.10
2018-01-11T10:39:28.568Z,8.10
2018-01-11T10:41:56.469Z,8.20
2018-01-11T10:44:24.343Z,8.20
2018-01-11T10:46:51.915Z,8.20
2018-01-11T10:49:19.498Z,8.20
2018-01-11T10:51:47.029Z,8.20
2018-01-11T10:54:14.512Z,8.20
2018-01-11T10:56:42.061Z,8.20
2018-01-11T10:59:09.648Z,8.20
2018-01-11T11:01:42.946Z,8.30
2018-01-11T11:04:10.437Z,8.30
2018-01-11T11:06:37.975Z,8.40
2018-01-11T11:09:05.520Z,8.40
2018-01-11T11:11:33.023Z,8.50
2018-01-11T11:14:00.905Z,8.50
2018-01-11T11:16:28.874Z,8.60
2018-01-11T11:18:56.458Z,8.60
2018-01-11T11:21:23.952Z,8.70
2018-01-11T11:23:51.559Z,8.70
2018-01-11T11:26:19.435Z,9.20
2018-01-11T11:28:46.949Z,9.20
2018-01-11T11:31:14.431Z,9.20
2018-01-11T11:33:41.940Z,9.20
2018-01-11T11:36:09.429Z,9.50
2018-01-11T11:38:36.942Z,9.40
2018-01-11T11:41:04.429Z,9.40
2018-01-11T11:43:32.008Z,9.30
2018-01-11T11:45:59.493Z,9.30
2018-01-11T11:48:27.001Z,9.30
2018-01-11T11:50:54.979Z,9.20
2018-01-11T11:53:22.552Z,9.30
2018-01-11T11:55:50.035Z,9.20
2018-01-11T11:58:17.535Z,9.20
2018-01-11T12:00:45.522Z,9.30
2018-01-11T12:03:13.046Z,9.30
2018-01-11T12:05:40.537Z,9.30
2018-01-11T12:08:08.032Z,9.30
2018-01-11T12:10:35.511Z,9.30
2018-01-11T12:13:03.038Z,9.20
2018-01-11T12:15:30.534Z,9.30
2018-01-11T12:17:58.441Z,9.20
2018-01-11T12:20:25.931Z,9.30
2018-01-11T12:22:53.480Z,9.30
2018-01-11T12:25:20.992Z,9.30
2018-01-11T12:27:48.486Z,9.40
2018-01-11T12:30:15.993Z,9.40
2018-01-11T12:32:43.509Z,10.70
2018-01-11T12:35:10.995Z,10.70
2018-01-11T12:37:38.479Z,10.50
2018-01-11T12:40:06.474Z,10.20
2018-01-11T12:42:34.369Z,10.10
2018-01-11T12:45:02.278Z,9.90
2018-01-11T12:47:30.243Z,9.90
2018-01-11T12:49:57.833Z,9.90
2018-01-11T12:52:25.410Z,9.80
2018-01-11T12:54:52.995Z,10.20
2018-01-11T12:57:20.475Z,10.10
2018-01-11T12:59:47.977Z,9.90
2018-01-11T13:02:15.951Z,9.80
2018-01-11T13:04:43.457Z,9.80
2018-01-11T13:07:11.349Z,9.80
2018-01-11T13:09:39.250Z,9.70
2018-01-11T13:12:07.132Z,9.80
2018-01-11T13:14:35.032Z,9.80
2018-01-11T13:17:02.942Z,9.70
2018-01-11T13:19:30.443Z,9.80
2018-01-11T13:21:57.933Z,9.70
2018-01-11T13:24:25.441Z,9.70
2018-01-11T13:26:52.927Z,9.60
2018-01-11T13:29:20.520Z,9.60
2018-01-11T13:31:48.013Z,9.60
2018-01-11T13:34:15.517Z,9.60
2018-01-11T13:36:42.996Z,9.60
2018-01-11T13:39:10.993Z,9.50
2018-01-11T13:41:38.544Z,9.60
2018-01-11T13:44:06.130Z,9.60
2018-01-11T13:46:33.606Z,9.60
2018-01-11T13:49:01.113Z,9.60
2018-01-11T13:51:29.097Z,9.50
2018-01-11T13:53:56.676Z,9.50
2018-01-11T13:56:24.155Z,9.50
2018-01-11T13:58:51.674Z,9.60
2018-01-11T14:01:19.263Z,9.50
2018-01-11T14:03:46.764Z,9.50
2018-01-11T14:06:14.274Z,9.50
2018-01-11T14:08:41.746Z,9.50
2018-01-11T14:11:09.299Z,9.50
2018-01-11T14:13:36.844Z,9.60
2018-01-11T14:16:04.340Z,9.60
2018-01-11T14:18:32.312Z,9.60
2018-01-11T14:20:59.909Z,9.50
2018-01-11T14:23:27.396Z,9.50
2018-01-11T14:25:55.000Z,9.60
2018-01-11T14:28:22.880Z,9.50
2018-01-11T14:30:50.781Z,9.40
2018-01-11T14:33:18.756Z,9.40
2018-01-11T14:35:46.333Z,9.40
2018-01-11T14:38:13.823Z,9.40
2018-01-11T14:40:42.216Z,9.40
2018-01-11T14:43:09.709Z,9.50
2018-01-11T14:45:37.226Z,9.40
2018-01-11T14:48:04.767Z,9.40
2018-01-11T14:50:32.353Z,9.40
2018-01-11T14:52:59.844Z,9.40
2018-01-11T14:55:27.330Z,9.40
2018-01-11T14:57:54.825Z,9.40
2018-01-11T15:00:22.724Z,10.40
2018-01-11T15:02:50.725Z,10.20
2018-01-11T15:05:18.719Z,10.00
2018-01-11T15:07:46.692Z,9.80
2018-01-11T15:10:14.299Z,9.90
2018-01-11T15:12:41.860Z,9.70
2018-01-11T15:15:09.443Z,10.20
2018-01-11T15:17:36.953Z,10.00
2018-01-11T15:20:04.464Z,10.00
2018-01-11T15:22:31.948Z,9.70
2018-01-11T15:24:59.477Z,9.60
2018-01-11T15:27:26.984Z,9.40
2018-01-11T15:29:54.491Z,9.40
2018-01-11T15:32:21.983Z,9.30
2018-01-11T15:34:49.584Z,9.10
2018-01-11T15:37:17.088Z,9.00
2018-01-11T15:39:44.576Z,8.90
2018-01-11T15:42:12.480Z,8.70
2018-01-11T15:44:40.376Z,8.60
2018-01-11T15:47:08.353Z,8.60
2018-01-11T15:49:35.855Z,8.60
2018-01-11T15:52:03.751Z,8.60
2018-01-11T15:54:31.252Z,8.60
2018-01-11T15:56:58.761Z,8.50
2018-01-11T15:59:26.260Z,8.50
2018-01-11T16:01:53.785Z,8.50
2018-01-11T16:04:21.348Z,8.50
2018-01-11T16:06:49.332Z,8.40
2018-01-11T16:09:16.810Z,8.40
2018-01-11T16:11:44.310Z,8.40
2018-01-11T16:14:12.183Z,8.50
2018-01-11T16:16:39.679Z,8.50
2018-01-11T16:19:07.251Z,8.50
2018-01-11T16:21:34.762Z,8.50
2018-01-11T16:24:02.726Z,8.40
2018-01-11T16:26:30.238Z,8.40
2018-01-11T16:28:58.231Z,8.40
2018-01-11T16:31:26.213Z,8.50
2018-01-11T16:33:53.754Z,8.50
2018-01-11T16:36:21.257Z,8.40
2018-01-11T16:38:48.790Z,8.40
2018-01-11T16:41:16.305Z,8.50
2018-01-11T16:43:43.855Z,8.50
2018-01-11T16:46:11.844Z,8.40
2018-01-11T16:48:39.740Z,8.40
2018-01-11T16:51:07.694Z,8.30
2018-01-11T16:53:35.320Z,8.40
2018-01-11T16:56:02.863Z,8.30
2018-01-11T16:58:30.442Z,8.20
2018-01-11T17:00:58.048Z,8.20
2018-01-11T17:03:25.660Z,8.30
2018-01-11T17:05:53.139Z,8.20
2018-01-11T17:08:21.073Z,8.20
2018-01-11T17:10:48.547Z,8.20
2018-01-11T17:13:16.173Z,8.20
2018-01-11T17:15:43.753Z,8.20
2018-01-11T17:18:11.311Z,8.20
2018-01-11T17:20:38.786Z,8.30
2018-01-11T17:23:06.440Z,8.30
2018-01-11T17:25:33.957Z,8.30
2018-01-11T17:28:01.469Z,8.30
2018-01-11T17:30:28.947Z,8.30
2018-01-11T17:32:56.465Z,8.30
2018-01-11T17:35:23.986Z,8.30
2018-01-11T17:37:51.535Z,8.30
2018-01-11T17:40:19.430Z,8.30
2018-01-11T17:42:47.413Z,8.30
2018-01-11T17:45:14.921Z,8.30
2018-01-11T17:47:42.440Z,8.30
2018-01-11T17:50:09.965Z,8.30
2018-01-11T17:52:37.970Z,8.30
2018-01-11T17:55:05.480Z,8.30
2018-01-11T17:57:32.983Z,8.30
2018-01-11T18:00:00.513Z,8.20
2018-01-11T18:02:28.434Z,8.20
2018-01-11T18:04:56.068Z,8.20
2018-01-11T18:07:23.564Z,8.10
2018-01-11T18:09:51.048Z,8.10
2018-01-11T18:12:18.546Z,8.10
2018-01-11T18:14:46.047Z,8.10
2018-01-11T18:17:13.585Z,8.10
2018-01-11T18:19:41.092Z,8.10
2018-01-11T18:22:08.963Z,8.10
2018-01-11T18:24:36.467Z,8.10
2018-01-11T18:27:04.344Z,8.00
2018-01-11T18:29:32.241Z,8.00
2018-01-11T18:32:00.216Z,8.00
2018-01-11T18:34:27.711Z,8.00
2018-01-11T18:36:55.279Z,8.00
2018-01-11T18:39:22.785Z,8.00
2018-01-11T18:41:50.655Z,7.90
2018-01-11T18:44:18.147Z,8.00
2018-01-11T18:46:45.632Z,7.90
2018-01-11T18:49:13.207Z,7.90
2018-01-11T18:51:40.805Z,7.90
2018-01-11T18:54:08.312Z,7.90
2018-01-11T18:56:35.795Z,7.90
2018-01-11T18:59:03.305Z,7.90
2018-01-11T19:01:30.782Z,7.90
2018-01-11T19:03:58.293Z,7.80
2018-01-11T19:06:25.771Z,7.80
2018-01-11T19:08:53.266Z,7.80
2018-01-11T19:11:20.886Z,7.90
2018-01-11T19:13:48.855Z,7.90
2018-01-11T19:16:17.145Z,7.90
2018-01-11T19:18:44.723Z,7.90
2018-01-11T19:21:12.213Z,7.90
2018-01-11T19:23:39.809Z,7.90
2018-01-11T19:26:07.321Z,7.90
2018-01-11T19:28:34.833Z,7.80
2018-01-11T19:31:02.325Z,7.80
2018-01-11T19:33:29.833Z,7.70
2018-01-11T19:35:57.348Z,7.70
2018-01-11T19:38:25.228Z,7.70
2018-01-11T19:40:53.128Z,7.70
2018-01-11T19:43:21.092Z,7.70
2018-01-11T19:45:48.605Z,7.70
2018-01-11T19:48:16.602Z,7.60
2018-01-11T19:50:44.164Z,7.70
2018-01-11T19:53:11.739Z,7.60
2018-01-11T19:55:39.254Z,7.60
2018-01-11T19:58:07.194Z,7.50
2018-01-11T20:00:34.704Z,7.60
2018-01-11T20:03:02.197Z,7.50
2018-01-11T20:05:29.699Z,7.50
2018-01-11T20:07:57.621Z,7.50
2018-01-11T20:10:25.132Z,7.60
2018-01-11T20:12:52.632Z,7.50
2018-01-11T20:15:20.167Z,7.60
2018-01-11T20:17:47.711Z,7.60
2018-01-11T20:20:15.218Z,7.60
2018-01-11T20:22:42.776Z,7.50
2018-01-11T20:25:10.283Z,7.60
2018-01-11T20:27:38.159Z,7.50
2018-01-11T20:30:06.191Z,7.50
2018-01-11T20:32:33.679Z,7.50
2018-01-11T20:35:01.176Z,7.50
2018-01-11T20:37:29.587Z,7.50
2018-01-11T20:39:57.110Z,7.50
2018-01-11T20:42:24.632Z,7.40
2018-01-11T20:44:52.123Z,7.50
2018-01-11T20:47:19.665Z,7.50
2018-01-11T20:49:47.597Z,7.50
2018-01-11T20:52:15.109Z,7.60
2018-01-11T20:54:42.695Z,7.50
2018-01-11T20:57:10.205Z,7.40
2018-01-11T20:59:38.111Z,7.40
2018-01-11T21:02:06.177Z,7.40
2018-01-11T21:04:33.671Z,7.40
2018-01-11T21:07:01.385Z,7.40
2018-01-11T21:09:28.898Z,7.40
2018-01-11T21:11:56.565Z,7.30
2018-01-11T21:14:24.096Z,7.30
2018-01-11T21:16:51.915Z,7.40
2018-01-11T21:19:19.461Z,7.30
2018-01-11T21:21:47.087Z,7.30
2018-01-11T21:24:14.608Z,7.30
2018-01-11T21:26:42.101Z,7.30
2018-01-11T21:29:09.624Z,7.30
2018-01-11T21:31:37.514Z,7.20
2018-01-11T21:34:05.110Z,7.30
2018-01-11T21:36:33.001Z,7.20
2018-01-11T21:39:00.903Z,7.30
2018-01-11T21:41:28.466Z,7.30
2018-01-11T21:43:55.951Z,7.30
2018-01-11T21:46:23.453Z,7.20
2018-01-11T21:48:51.421Z,7.10
2018-01-11T21:51:19.021Z,7.10
2018-01-11T21:53:46.517Z,7.00
2018-01-11T21:58:48.427Z,7.10
2018-01-11T22:01:15.936Z,7.10
2018-01-11T22:03:43.423Z,7.00
2018-01-11T22:06:10.937Z,7.10
2018-01-11T22:08:38.464Z,7.10
2018-01-11T22:11:06.461Z,7.10
2018-01-11T22:13:34.339Z,7.00
2018-01-11T22:16:01.831Z,7.10
2018-01-11T22:18:29.740Z,7.10
2018-01-11T22:20:57.629Z,7.10
2018-01-11T22:23:25.134Z,7.10
2018-01-11T22:25:52.611Z,7.10
2018-01-11T22:28:20.124Z,7.10
2018-01-11T22:30:47.616Z,7.10
2018-01-11T22:33:15.200Z,7.10
2018-01-11T22:35:42.688Z,7.10
2018-01-11T22:38:10.186Z,7.10
2018-01-11T22:40:37.701Z,7.10
2018-01-11T22:43:05.585Z,7.00
2018-01-11T22:45:33.561Z,7.00
2018-01-11T22:48:01.149Z,7.00
2018-01-11T22:50:28.863Z,7.00
2018-01-11T22:52:56.160Z,7.00
2018-01-11T22:55:23.671Z,7.00
2018-01-11T22:57:51.176Z,7.00
2018-01-11T23:00:23.684Z,7.00
2018-01-11T23:02:51.168Z,6.90
2018-01-11T23:05:18.693Z,7.00
2018-01-11T23:07:46.232Z,7.00
2018-01-11T23:10:13.709Z,7.10
2018-01-11T23:12:41.213Z,7.00
2018-01-11T23:15:09.096Z,7.00
2018-01-11T23:17:36.592Z,7.00
2018-01-11T23:20:04.464Z,6.80
2018-01-11T23:22:31.958Z,6.90
2018-01-11T23:24:59.870Z,6.80
2018-01-11T23:27:27.833Z,6.80
2018-01-11T23:29:55.415Z,6.80
2018-01-11T23:32:22.920Z,6.80
2018-01-11T23:34:50.795Z,6.90
2018-01-11T23:37:18.381Z,6.90
2018-01-11T23:39:46.285Z,6.80
2018-01-11T23:42:14.181Z,6.90
2018-01-11T23:44:42.098Z,6.90
2018-01-11T23:47:09.646Z,7.00
2018-01-11T23:49:37.229Z,6.90
2018-01-11T23:52:04.817Z,6.90
2018-01-11T23:54:32.809Z,6.80
2018-01-11T23:57:00.817Z,6.90
2018-01-11T23:59:28.783Z,6.90
